Hallettsville, Texas
Current Conditions -  °F | °C
As of 6:55 AM on Wednesday 26 Nov 2014 (Local Time) from K66R Reporting Station
Clear Clear  
Wind Chill:   Ceiling: Unl
Heat Index:   Visibility: 10mi
Dew Point:   Wind: 10mph
Humidity: 61%   Direction: 230°SW
Pressure: 30.21"   Gusts: NA
Location:  29.44°N, 96.94°W
Report Text: K66R 261255Z AUTO 23009KT 10SM CLR 09/02 A3021 RMK AO2 T00870016
Loading
Personal Weather Stations






























Interactive Weather Map New forecast layout! Learn more

10-Day Weather Forecast

Advertisements
Track Severe Weather on mobile